createdAt,value
2018-12-07T00:00:57.506Z,23.11
2018-12-07T00:02:50.452Z,23.16
2018-12-07T00:03:50.482Z,23.17
2018-12-07T00:05:43.435Z,23.18
2018-12-07T00:06:43.460Z,23.08
2018-12-07T00:08:37.274Z,23.08
2018-12-07T00:09:36.432Z,23.18
2018-12-07T00:11:29.380Z,23.16
2018-12-07T00:12:29.406Z,23.04
2018-12-07T00:14:24.532Z,23.16
2018-12-07T00:15:24.549Z,23.16
2018-12-07T00:17:17.503Z,23.07
2018-12-07T00:18:17.525Z,23.14
2018-12-07T00:20:10.475Z,22.99
2018-12-07T00:21:10.501Z,23.02
2018-12-07T00:23:03.441Z,23.08
2018-12-07T00:24:03.471Z,23.08
2018-12-07T00:25:56.428Z,23.08
2018-12-07T00:26:56.446Z,23.06
2018-12-07T00:28:49.394Z,23.06
2018-12-07T00:29:49.421Z,23.02
2018-12-07T00:31:42.377Z,23.02
2018-12-07T00:32:42.399Z,23.10
2018-12-07T00:34:35.360Z,23.08
2018-12-07T00:35:35.365Z,23.08
2018-12-07T00:37:28.311Z,23.06
2018-12-07T00:38:28.343Z,23.02
2018-12-07T00:40:21.294Z,23.06
2018-12-07T00:41:21.314Z,23.04
2018-12-07T00:43:14.265Z,23.08
2018-12-07T00:44:14.295Z,22.99
2018-12-07T00:46:07.251Z,23.07
2018-12-07T00:47:07.268Z,23.02
2018-12-07T00:49:00.218Z,23.02
2018-12-07T00:50:00.241Z,23.02
2018-12-07T00:51:53.198Z,23.06
2018-12-07T00:52:53.219Z,23.10
2018-12-07T00:54:46.189Z,23.04
2018-12-07T00:55:46.193Z,22.99
2018-12-07T00:57:41.667Z,23.02
2018-12-07T00:58:39.174Z,23.08
2018-12-07T01:00:32.120Z,22.99
2018-12-07T01:01:32.139Z,22.98
2018-12-07T01:03:25.085Z,23.10
2018-12-07T01:04:25.112Z,22.96
2018-12-07T01:06:18.069Z,22.99
2018-12-07T01:07:18.089Z,22.99
2018-12-07T01:09:11.029Z,23.02
2018-12-07T01:10:11.059Z,23.08
2018-12-07T01:12:04.015Z,23.01
2018-12-07T01:13:04.035Z,22.91
2018-12-07T01:14:56.984Z,23.01
2018-12-07T01:15:57.014Z,22.99
2018-12-07T01:17:49.968Z,22.95
2018-12-07T01:18:49.990Z,22.93
2018-12-07T01:20:42.941Z,22.99
2018-12-07T01:21:42.961Z,22.91
2018-12-07T01:23:35.911Z,23.04
2018-12-07T01:24:35.939Z,22.98
2018-12-07T01:26:28.890Z,22.93
2018-12-07T01:27:28.913Z,22.98
2018-12-07T01:29:21.855Z,22.98
2018-12-07T01:30:21.887Z,22.98
2018-12-07T01:32:14.839Z,22.96
2018-12-07T01:33:14.865Z,22.93
2018-12-07T01:35:07.816Z,22.96
2018-12-07T01:36:07.840Z,22.96
2018-12-07T01:38:00.789Z,22.96
2018-12-07T01:39:00.808Z,22.91
2018-12-07T01:40:53.767Z,23.01
2018-12-07T01:41:53.787Z,22.92
2018-12-07T01:43:46.735Z,22.89
2018-12-07T01:44:46.763Z,22.98
2018-12-07T01:46:39.718Z,23.06
2018-12-07T01:47:39.737Z,22.98
2018-12-07T01:49:32.683Z,22.92
2018-12-07T01:50:32.711Z,22.95
2018-12-07T01:52:25.688Z,22.99
2018-12-07T01:53:25.687Z,22.92
2018-12-07T01:55:18.658Z,22.93
2018-12-07T01:56:18.660Z,22.92
2018-12-07T01:58:11.613Z,22.93
2018-12-07T01:59:11.633Z,23.02
2018-12-07T02:01:04.587Z,22.96
2018-12-07T02:02:04.603Z,22.93
2018-12-07T02:03:57.546Z,22.93
2018-12-07T02:04:57.575Z,22.96
2018-12-07T02:06:50.526Z,22.93
2018-12-07T02:07:50.552Z,22.95
2018-12-07T02:09:43.495Z,22.99
2018-12-07T02:10:43.525Z,23.02
2018-12-07T02:12:36.486Z,22.95
2018-12-07T02:13:36.504Z,22.95
2018-12-07T02:15:29.448Z,22.98
2018-12-07T02:16:29.478Z,22.98
2018-12-07T02:18:22.431Z,22.98
2018-12-07T02:19:22.452Z,22.95
2018-12-07T02:21:15.392Z,23.01
2018-12-07T02:22:15.422Z,22.83
2018-12-07T02:24:08.377Z,22.95
2018-12-07T02:25:08.396Z,22.95
2018-12-07T02:27:01.841Z,23.02
2018-12-07T02:28:01.864Z,22.96
2018-12-07T02:29:54.806Z,22.91
2018-12-07T02:30:54.837Z,22.84
2018-12-07T02:32:47.794Z,22.93
2018-12-07T02:33:47.812Z,22.81
2018-12-07T02:35:40.755Z,22.95
2018-12-07T02:36:40.786Z,22.86
2018-12-07T02:38:33.742Z,22.93
2018-12-07T02:39:33.761Z,22.80
2018-12-07T02:41:26.702Z,22.86
2018-12-07T02:42:26.734Z,22.81
2018-12-07T02:44:19.692Z,22.88
2018-12-07T02:45:19.707Z,22.81
2018-12-07T02:47:12.661Z,22.86
2018-12-07T02:48:12.680Z,22.88
2018-12-07T02:50:05.630Z,22.83
2018-12-07T02:51:05.658Z,22.86
2018-12-07T02:52:58.606Z,22.88
2018-12-07T02:53:58.628Z,22.81
2018-12-07T02:55:51.577Z,22.83
2018-12-07T02:56:51.603Z,22.81
2018-12-07T02:58:44.558Z,22.84
2018-12-07T02:59:44.578Z,22.86
2018-12-07T03:01:37.531Z,22.83
2018-12-07T03:02:37.559Z,22.80
2018-12-07T03:04:30.513Z,22.80
2018-12-07T03:05:30.534Z,22.77
2018-12-07T03:07:23.506Z,22.86
2018-12-07T03:08:23.505Z,22.81
2018-12-07T03:10:16.459Z,22.77
2018-12-07T03:11:16.480Z,22.80
2018-12-07T03:13:09.429Z,22.76
2018-12-07T03:14:09.454Z,22.83
2018-12-07T03:16:02.397Z,22.86
2018-12-07T03:17:02.429Z,22.78
2018-12-07T03:18:55.377Z,22.86
2018-12-07T03:19:55.401Z,22.83
2018-12-07T03:21:48.344Z,22.84
2018-12-07T03:22:48.373Z,22.86
2018-12-07T03:24:41.323Z,22.81
2018-12-07T03:25:41.344Z,22.83
2018-12-07T03:27:34.292Z,22.83
2018-12-07T03:28:34.323Z,22.88
2018-12-07T03:30:27.288Z,22.83
2018-12-07T03:31:27.298Z,22.83
2018-12-07T03:33:20.267Z,22.83
2018-12-07T03:34:20.265Z,22.80
2018-12-07T03:36:13.214Z,22.81
2018-12-07T03:37:13.243Z,22.74
2018-12-07T03:39:06.198Z,22.81
2018-12-07T03:40:06.224Z,22.83
2018-12-07T03:41:59.162Z,22.81
2018-12-07T03:42:59.192Z,22.83
2018-12-07T03:44:52.146Z,22.81
2018-12-07T03:45:52.169Z,22.83
2018-12-07T03:47:45.110Z,22.89
2018-12-07T03:48:45.135Z,22.76
2018-12-07T03:50:38.088Z,22.84
2018-12-07T03:51:38.112Z,22.73
2018-12-07T03:53:31.065Z,22.76
2018-12-07T03:54:31.081Z,22.73
2018-12-07T03:56:24.038Z,22.84
2018-12-07T03:57:24.074Z,22.76
2018-12-07T03:59:17.013Z,22.83
2018-12-07T04:00:17.039Z,22.80
2018-12-07T04:02:09.988Z,22.88
2018-12-07T04:03:10.013Z,22.77
2018-12-07T04:05:02.998Z,22.76
2018-12-07T04:06:02.985Z,22.74
2018-12-07T04:07:55.929Z,22.76
2018-12-07T04:08:55.956Z,22.74
2018-12-07T04:10:48.910Z,22.83
2018-12-07T04:11:48.930Z,22.88
2018-12-07T04:13:41.885Z,22.74
2018-12-07T04:14:41.904Z,22.83
2018-12-07T04:16:34.847Z,22.81
2018-12-07T04:17:34.880Z,22.88
2018-12-07T04:19:27.835Z,22.76
2018-12-07T04:20:27.857Z,22.78
2018-12-07T04:22:20.794Z,22.76
2018-12-07T04:23:20.839Z,22.76
2018-12-07T04:25:13.776Z,22.83
2018-12-07T04:26:13.800Z,22.74
2018-12-07T04:28:06.740Z,22.83
2018-12-07T04:29:06.773Z,22.76
2018-12-07T04:30:59.720Z,22.78
2018-12-07T04:31:59.746Z,22.84
2018-12-07T04:33:52.695Z,22.88
2018-12-07T04:34:52.716Z,22.76
2018-12-07T04:36:45.665Z,22.76
2018-12-07T04:37:45.697Z,22.77
2018-12-07T04:39:38.649Z,22.83
2018-12-07T04:40:38.669Z,22.74
2018-12-07T04:42:31.613Z,22.71
2018-12-07T04:43:31.641Z,22.71
2018-12-07T04:45:24.594Z,22.76
2018-12-07T04:46:24.624Z,22.74
2018-12-07T04:48:17.558Z,22.73
2018-12-07T04:49:17.590Z,22.76
2018-12-07T04:51:10.541Z,22.68
2018-12-07T04:52:10.563Z,22.71
2018-12-07T04:54:03.514Z,22.81
2018-12-07T04:55:03.543Z,22.77
2018-12-07T04:56:56.482Z,22.88
2018-12-07T04:57:56.512Z,22.78
2018-12-07T04:59:49.469Z,22.84
2018-12-07T05:00:49.487Z,22.81
2018-12-07T05:02:42.437Z,22.83
2018-12-07T05:03:42.467Z,22.92
2018-12-07T05:05:35.415Z,22.86
2018-12-07T05:06:35.438Z,22.71
2018-12-07T05:08:28.384Z,22.67
2018-12-07T05:09:28.416Z,22.71
2018-12-07T05:11:21.364Z,22.78
2018-12-07T05:12:21.385Z,22.68
2018-12-07T05:14:14.329Z,22.74
2018-12-07T05:15:14.360Z,22.73
2018-12-07T05:17:07.315Z,22.73
2018-12-07T05:18:07.370Z,22.71
2018-12-07T05:20:00.292Z,22.68
2018-12-07T05:21:00.316Z,22.68
2018-12-07T05:22:53.263Z,22.74
2018-12-07T05:23:53.323Z,22.70
2018-12-07T05:25:46.245Z,22.67
2018-12-07T05:26:46.268Z,22.68
2018-12-07T05:28:39.214Z,22.68
2018-12-07T05:29:39.247Z,22.70
2018-12-07T05:31:32.198Z,22.77
2018-12-07T05:32:32.217Z,22.67
2018-12-07T05:34:25.164Z,22.67
2018-12-07T05:35:25.197Z,22.67
2018-12-07T05:37:18.160Z,22.63
2018-12-07T05:38:18.166Z,22.58
2018-12-07T05:40:11.169Z,22.74
2018-12-07T05:41:11.185Z,22.65
2018-12-07T05:43:04.131Z,22.61
2018-12-07T05:44:04.165Z,22.59
2018-12-07T05:45:57.117Z,22.65
2018-12-07T05:46:57.139Z,22.68
2018-12-07T05:48:50.099Z,22.61
2018-12-07T05:49:50.111Z,22.62
2018-12-07T05:51:43.069Z,22.62
2018-12-07T05:52:43.092Z,22.62
2018-12-07T05:54:36.034Z,22.71
2018-12-07T05:55:36.062Z,22.61
2018-12-07T05:57:29.030Z,22.70
2018-12-07T05:58:29.036Z,22.71
2018-12-07T06:00:21.988Z,22.73
2018-12-07T06:01:22.009Z,22.61
2018-12-07T06:03:14.955Z,22.80
2018-12-07T06:04:14.983Z,22.81
2018-12-07T06:06:07.934Z,22.93
2018-12-07T06:07:07.957Z,23.01
2018-12-07T06:09:00.906Z,22.95
2018-12-07T06:10:00.935Z,22.92
2018-12-07T06:11:55.081Z,22.81
2018-12-07T06:12:53.903Z,22.78
2018-12-07T06:14:46.850Z,22.71
2018-12-07T06:15:46.879Z,22.84
2018-12-07T06:17:39.830Z,22.86
2018-12-07T06:18:39.856Z,22.84
2018-12-07T06:20:32.797Z,22.92
2018-12-07T06:21:32.827Z,22.93
2018-12-07T06:23:25.774Z,22.96
2018-12-07T06:24:25.797Z,22.83
2018-12-07T06:26:18.756Z,22.81
2018-12-07T06:27:18.772Z,22.84
2018-12-07T06:29:11.715Z,22.89
2018-12-07T06:30:11.745Z,22.89
2018-12-07T06:32:04.697Z,22.96
2018-12-07T06:33:04.716Z,22.93
2018-12-07T06:34:57.666Z,23.07
2018-12-07T06:35:57.694Z,22.99
2018-12-07T06:37:50.647Z,23.04
2018-12-07T06:38:50.665Z,23.01
2018-12-07T06:40:43.622Z,23.10
2018-12-07T06:41:43.644Z,23.16
2018-12-07T06:43:36.606Z,23.13
2018-12-07T06:44:36.624Z,23.07
2018-12-07T06:46:29.574Z,23.06
2018-12-07T06:47:29.596Z,23.07
2018-12-07T06:49:22.541Z,23.17
2018-12-07T06:50:22.574Z,23.18
2018-12-07T06:52:15.530Z,23.32
2018-12-07T06:53:15.551Z,23.29
2018-12-07T06:55:08.492Z,23.14
2018-12-07T06:56:08.524Z,22.84
2018-12-07T06:58:01.479Z,22.98
2018-12-07T06:59:01.503Z,22.98
2018-12-07T07:00:54.451Z,23.14
2018-12-07T07:01:54.482Z,23.11
2018-12-07T07:03:47.433Z,23.18
2018-12-07T07:04:47.454Z,23.16
2018-12-07T07:06:40.410Z,23.14
2018-12-07T07:07:40.435Z,23.16
2018-12-07T07:09:33.377Z,23.11
2018-12-07T07:10:33.408Z,23.14
2018-12-07T07:12:26.361Z,23.14
2018-12-07T07:13:26.380Z,23.16
2018-12-07T07:15:19.324Z,23.26
2018-12-07T07:16:23.042Z,23.25
2018-12-07T07:18:12.330Z,23.14
2018-12-07T07:19:12.329Z,23.26
2018-12-07T07:21:05.273Z,23.26
2018-12-07T07:22:05.304Z,23.37
2018-12-07T07:23:58.259Z,23.25
2018-12-07T07:24:58.281Z,23.14
2018-12-07T07:26:51.237Z,22.51
2018-12-07T07:27:51.261Z,22.15
2018-12-07T07:29:44.252Z,21.92
2018-12-07T07:30:44.238Z,22.23
2018-12-07T07:32:37.692Z,21.91
2018-12-07T07:33:37.730Z,21.78
2018-12-07T07:35:30.659Z,22.34
2018-12-07T07:36:30.693Z,22.47
2018-12-07T07:38:23.643Z,22.81
2018-12-07T07:39:23.662Z,22.95
2018-12-07T07:41:16.615Z,23.01
2018-12-07T07:42:16.642Z,22.99
2018-12-07T07:44:09.595Z,23.10
2018-12-07T07:45:09.615Z,23.07
2018-12-07T07:47:02.568Z,23.17
2018-12-07T07:48:02.593Z,23.18
2018-12-07T07:49:55.539Z,23.17
2018-12-07T07:50:55.566Z,23.13
2018-12-07T07:52:48.523Z,23.16
2018-12-07T07:53:48.545Z,23.16
2018-12-07T07:55:41.492Z,23.17
2018-12-07T07:56:41.522Z,23.16
2018-12-07T07:58:34.489Z,23.16
2018-12-07T07:59:34.500Z,23.16
2018-12-07T08:01:27.449Z,23.20
2018-12-07T08:02:29.189Z,23.14
2018-12-07T08:04:20.434Z,23.14
2018-12-07T08:05:20.451Z,23.14
2018-12-07T08:07:13.411Z,23.17
2018-12-07T08:08:13.431Z,23.17
2018-12-07T08:10:06.375Z,23.17
2018-12-07T08:11:06.405Z,23.18
2018-12-07T08:12:59.356Z,23.17
2018-12-07T08:13:59.381Z,23.17
2018-12-07T08:15:52.327Z,23.17
2018-12-07T08:16:52.356Z,23.17
2018-12-07T08:18:45.314Z,23.17
2018-12-07T08:19:45.340Z,23.14
2018-12-07T08:21:38.287Z,23.14
2018-12-07T08:22:38.316Z,23.13
2018-12-07T08:24:31.268Z,23.13
2018-12-07T08:25:31.291Z,23.13
2018-12-07T08:27:24.259Z,23.16
2018-12-07T08:28:24.265Z,23.13
2018-12-07T08:30:17.213Z,23.18
2018-12-07T08:31:17.240Z,23.08
2018-12-07T08:33:10.194Z,23.16
2018-12-07T08:34:10.219Z,23.16
2018-12-07T08:36:03.163Z,23.18
2018-12-07T08:37:03.193Z,23.14
2018-12-07T08:38:56.144Z,23.18
2018-12-07T08:39:56.167Z,23.17
2018-12-07T08:41:49.116Z,23.14
2018-12-07T08:42:49.141Z,23.14
2018-12-07T08:44:42.098Z,23.20
2018-12-07T08:45:42.118Z,23.18
2018-12-07T08:47:35.066Z,23.17
2018-12-07T08:48:35.094Z,23.16
2018-12-07T08:50:28.050Z,23.26
2018-12-07T08:51:28.070Z,23.26
2018-12-07T08:53:21.032Z,23.20
2018-12-07T08:54:21.044Z,23.23
2018-12-07T08:56:13.993Z,23.25
2018-12-07T08:57:14.020Z,23.14
2018-12-07T08:59:06.977Z,23.32
2018-12-07T09:00:06.997Z,23.28
2018-12-07T09:01:59.944Z,23.32
2018-12-07T09:02:59.974Z,23.26
2018-12-07T09:04:52.927Z,23.33
2018-12-07T09:05:52.949Z,23.26
2018-12-07T09:07:45.896Z,23.26
2018-12-07T09:08:45.927Z,23.28
2018-12-07T09:10:38.881Z,23.28
2018-12-07T09:11:38.900Z,23.29
2018-12-07T09:13:31.853Z,23.26
2018-12-07T09:14:31.873Z,23.29
2018-12-07T09:16:24.820Z,23.26
2018-12-07T09:17:24.852Z,23.28
2018-12-07T09:19:17.801Z,23.28
2018-12-07T09:20:17.826Z,23.34
2018-12-07T09:22:10.770Z,23.26
2018-12-07T09:23:10.801Z,23.26
2018-12-07T09:25:03.755Z,23.28
2018-12-07T09:26:03.774Z,23.32
2018-12-07T09:27:56.724Z,23.29
2018-12-07T09:28:56.753Z,23.32
2018-12-07T09:30:49.705Z,23.36
2018-12-07T09:31:49.729Z,23.42
2018-12-07T09:33:42.674Z,23.39
2018-12-07T09:34:42.704Z,23.32
2018-12-07T09:36:35.656Z,23.33
2018-12-07T09:37:35.679Z,23.33
2018-12-07T09:39:28.634Z,23.29
2018-12-07T09:40:28.652Z,23.37
2018-12-07T09:42:21.598Z,23.33
2018-12-07T09:43:21.628Z,23.37
2018-12-07T09:45:14.586Z,23.39
2018-12-07T09:46:14.603Z,23.36
2018-12-07T09:48:07.552Z,23.39
2018-12-07T09:49:07.577Z,23.37
2018-12-07T09:51:00.532Z,23.44
2018-12-07T09:52:00.554Z,23.40
2018-12-07T09:53:53.494Z,23.45
2018-12-07T09:54:53.522Z,23.29
2018-12-07T09:56:46.481Z,23.44
2018-12-07T09:57:46.502Z,23.36
2018-12-07T09:59:39.472Z,23.45
2018-12-07T10:00:39.481Z,23.34
2018-12-07T10:02:32.421Z,23.42
2018-12-07T10:03:32.449Z,23.44
2018-12-07T10:05:25.405Z,23.42
2018-12-07T10:06:25.425Z,23.47
2018-12-07T10:08:18.370Z,23.44
2018-12-07T10:09:18.402Z,23.40
2018-12-07T10:11:11.357Z,23.36
2018-12-07T10:12:11.378Z,23.42
2018-12-07T10:14:04.323Z,23.44
2018-12-07T10:15:04.353Z,23.47
2018-12-07T10:16:57.307Z,23.42
2018-12-07T10:17:57.324Z,23.37
2018-12-07T10:19:50.271Z,23.37
2018-12-07T10:20:50.301Z,23.44
2018-12-07T10:22:43.259Z,23.34
2018-12-07T10:23:43.284Z,23.37
2018-12-07T10:25:36.234Z,23.40
2018-12-07T10:26:36.256Z,23.42
2018-12-07T10:28:29.202Z,23.40
2018-12-07T10:29:29.234Z,23.44
2018-12-07T10:31:22.185Z,23.37
2018-12-07T10:32:22.208Z,23.44
2018-12-07T10:34:15.153Z,23.45
2018-12-07T10:35:15.186Z,23.36
2018-12-07T10:37:08.138Z,23.42
2018-12-07T10:38:08.159Z,23.42
2018-12-07T10:40:01.101Z,22.83
2018-12-07T10:41:01.131Z,23.08
2018-12-07T10:42:54.088Z,23.32
2018-12-07T10:43:54.110Z,23.21
2018-12-07T10:45:47.060Z,23.32
2018-12-07T10:46:47.084Z,23.33
2018-12-07T10:48:40.027Z,23.29
2018-12-07T10:49:40.059Z,23.48
2018-12-07T10:51:33.012Z,23.44
2018-12-07T10:52:33.033Z,23.47
2018-12-07T10:54:25.978Z,23.51
2018-12-07T10:55:26.009Z,23.45
2018-12-07T10:57:18.961Z,23.52
2018-12-07T10:58:18.984Z,23.54
2018-12-07T11:00:11.930Z,23.51
2018-12-07T11:01:11.960Z,23.51
2018-12-07T11:03:04.915Z,23.54
2018-12-07T11:04:04.935Z,23.54
2018-12-07T11:05:57.884Z,23.51
2018-12-07T11:06:57.905Z,23.49
2018-12-07T11:08:50.869Z,23.51
2018-12-07T11:09:50.893Z,23.54
2018-12-07T11:11:44.334Z,23.48
2018-12-07T11:12:44.356Z,23.48
2018-12-07T11:14:37.303Z,23.52
2018-12-07T11:15:37.336Z,23.48
2018-12-07T11:17:30.283Z,23.52
2018-12-07T11:18:30.306Z,23.49
2018-12-07T11:20:23.253Z,23.49
2018-12-07T11:21:23.284Z,23.48
2018-12-07T11:23:16.237Z,23.49
2018-12-07T11:24:16.261Z,23.42
2018-12-07T11:26:09.212Z,23.51
2018-12-07T11:27:09.237Z,23.51
2018-12-07T11:29:02.184Z,23.47
2018-12-07T11:30:02.214Z,23.49
2018-12-07T11:31:55.171Z,23.51
2018-12-07T11:32:55.191Z,23.52
2018-12-07T11:34:48.142Z,23.54
2018-12-07T11:35:48.171Z,23.44
2018-12-07T11:37:41.121Z,23.48
2018-12-07T11:38:41.147Z,23.34
2018-12-07T11:40:34.096Z,23.51
2018-12-07T11:41:34.124Z,23.54
2018-12-07T11:43:27.088Z,23.52
2018-12-07T11:44:27.105Z,23.55
2018-12-07T11:46:20.047Z,23.51
2018-12-07T11:47:20.079Z,23.54
2018-12-07T11:49:13.068Z,23.48
2018-12-07T11:50:13.064Z,23.52
2018-12-07T11:52:06.010Z,23.51
2018-12-07T11:53:06.035Z,23.47
2018-12-07T11:54:58.975Z,23.63
2018-12-07T11:55:59.010Z,23.70
2018-12-07T11:57:51.963Z,23.44
2018-12-07T11:58:51.984Z,23.47
2018-12-07T12:00:44.929Z,23.45
2018-12-07T12:01:45.162Z,23.49
2018-12-07T12:03:37.910Z,23.47
2018-12-07T12:04:37.933Z,23.47
2018-12-07T12:06:30.878Z,23.42
2018-12-07T12:07:32.728Z,23.37
2018-12-07T12:09:23.858Z,23.33
2018-12-07T12:10:23.881Z,23.39
2018-12-07T12:12:16.837Z,23.37
2018-12-07T12:13:16.858Z,23.54
2018-12-07T12:15:09.803Z,23.36
2018-12-07T12:16:09.833Z,23.36
2018-12-07T12:18:02.796Z,23.49
2018-12-07T12:19:02.809Z,23.54
2018-12-07T12:20:55.758Z,23.42
2018-12-07T12:21:55.789Z,23.49
2018-12-07T12:23:53.651Z,23.55
2018-12-07T12:24:48.767Z,23.55
2018-12-07T12:26:41.717Z,23.52
2018-12-07T12:27:41.745Z,23.51
2018-12-07T12:29:34.709Z,23.52
2018-12-07T12:30:34.725Z,23.51
2018-12-07T12:32:27.688Z,23.44
2018-12-07T12:33:27.710Z,23.39
2018-12-07T12:35:21.518Z,23.44
2018-12-07T12:36:20.696Z,23.52
2018-12-07T12:38:13.648Z,23.48
2018-12-07T12:39:13.674Z,23.54
2018-12-07T12:41:06.619Z,23.58
2018-12-07T12:42:06.655Z,23.56
2018-12-07T12:43:59.623Z,23.54
2018-12-07T12:44:59.644Z,23.51
2018-12-07T12:46:52.598Z,23.70
2018-12-07T12:47:52.630Z,23.81
2018-12-07T12:49:45.594Z,23.76
2018-12-07T12:50:45.604Z,23.71
2018-12-07T12:52:38.562Z,23.52
2018-12-07T12:53:38.580Z,23.48
2018-12-07T12:55:31.528Z,23.52
2018-12-07T12:56:31.570Z,23.55
2018-12-07T12:58:24.514Z,23.47
2018-12-07T12:59:24.542Z,23.52
2018-12-07T13:01:17.476Z,23.49
2018-12-07T13:02:17.506Z,23.58
2018-12-07T13:04:10.464Z,23.56
2018-12-07T13:05:10.484Z,23.51
2018-12-07T13:07:03.469Z,23.42
2018-12-07T13:08:03.462Z,23.42
2018-12-07T13:09:56.418Z,23.55
2018-12-07T13:10:56.443Z,23.40
2018-12-07T13:12:49.388Z,23.42
2018-12-07T13:13:49.415Z,23.36
2018-12-07T13:15:42.357Z,23.37
2018-12-07T13:16:42.388Z,23.44
2018-12-07T13:18:35.339Z,23.37
2018-12-07T13:19:35.368Z,23.51
2018-12-07T13:21:28.308Z,23.48
2018-12-07T13:22:28.343Z,23.37
2018-12-07T13:24:21.294Z,23.36
2018-12-07T13:25:21.317Z,23.36
2018-12-07T13:27:14.266Z,23.44
2018-12-07T13:28:14.291Z,23.40
2018-12-07T13:30:07.243Z,23.39
2018-12-07T13:31:07.263Z,23.48
2018-12-07T13:33:00.215Z,23.37
2018-12-07T13:34:00.240Z,23.45
2018-12-07T13:35:53.187Z,23.45
2018-12-07T13:36:53.215Z,23.42
2018-12-07T13:38:46.167Z,23.36
2018-12-07T13:39:46.241Z,23.37
2018-12-07T13:41:39.281Z,23.45
2018-12-07T13:42:39.194Z,23.40
2018-12-07T13:44:32.117Z,23.32
2018-12-07T13:45:32.325Z,23.45
2018-12-07T13:47:25.257Z,23.45
2018-12-07T13:48:25.240Z,23.39
2018-12-07T13:50:18.081Z,23.47
2018-12-07T13:51:18.244Z,23.47
2018-12-07T13:53:11.050Z,23.42
2018-12-07T13:54:11.064Z,23.44
2018-12-07T13:56:04.108Z,23.32
2018-12-07T13:57:04.116Z,23.44
2018-12-07T13:58:57.055Z,23.54
2018-12-07T13:59:57.084Z,23.39
2018-12-07T14:01:50.019Z,23.52
2018-12-07T14:02:50.000Z,23.36
2018-12-07T14:04:42.944Z,23.44
2018-12-07T14:05:43.087Z,23.36
2018-12-07T14:07:35.945Z,23.29
2018-12-07T14:08:35.964Z,23.32
2018-12-07T14:10:28.967Z,23.29
2018-12-07T14:11:29.059Z,23.32
2018-12-07T14:13:21.882Z,23.14
2018-12-07T14:14:21.928Z,23.28
2018-12-07T14:16:14.837Z,23.20
2018-12-07T14:17:14.972Z,23.17
2018-12-07T14:19:08.019Z,23.10
2018-12-07T14:20:07.860Z,23.07
2018-12-07T14:22:00.795Z,23.13
2018-12-07T14:23:00.964Z,23.11
2018-12-07T14:24:53.922Z,23.11
2018-12-07T14:25:53.916Z,23.17
2018-12-07T14:27:46.765Z,23.18
2018-12-07T14:28:46.911Z,23.26
2018-12-07T14:30:39.911Z,23.33
2018-12-07T14:31:39.791Z,23.36
2018-12-07T14:33:32.707Z,23.29
2018-12-07T14:34:32.740Z,23.32
2018-12-07T14:36:25.700Z,23.40
2018-12-07T14:37:25.738Z,23.45
2018-12-07T14:39:18.666Z,23.25
2018-12-07T14:40:18.720Z,23.28
2018-12-07T14:42:11.705Z,23.29
2018-12-07T14:43:11.687Z,23.28
2018-12-07T14:45:04.798Z,23.26
2018-12-07T14:46:04.666Z,23.26
2018-12-07T14:47:57.657Z,23.23
2018-12-07T14:48:57.629Z,23.33
2018-12-07T14:50:50.671Z,23.39
2018-12-07T14:51:50.639Z,23.36
2018-12-07T14:53:43.554Z,23.42
2018-12-07T14:54:43.742Z,23.40
2018-12-07T14:56:36.522Z,23.33
2018-12-07T14:57:36.555Z,23.33
2018-12-07T14:59:29.644Z,23.29
2018-12-07T15:00:29.612Z,23.36
2018-12-07T15:02:22.548Z,23.37
2018-12-07T15:03:22.478Z,23.40
2018-12-07T15:05:15.524Z,23.01
2018-12-07T15:06:15.479Z,23.13
2018-12-07T15:08:08.558Z,23.40
2018-12-07T15:09:08.448Z,23.47
2018-12-07T15:11:01.587Z,23.49
2018-12-07T15:12:01.484Z,23.47
2018-12-07T15:13:54.584Z,23.49
2018-12-07T15:14:54.404Z,23.51
2018-12-07T15:16:47.424Z,23.62
2018-12-07T15:17:47.552Z,23.59
2018-12-07T15:19:40.562Z,23.59
2018-12-07T15:20:40.351Z,23.64
2018-12-07T15:22:33.312Z,23.55
2018-12-07T15:23:33.586Z,23.64
2018-12-07T15:25:26.462Z,23.67
2018-12-07T15:26:26.321Z,23.63
2018-12-07T15:28:19.271Z,23.70
2018-12-07T15:29:19.331Z,23.63
2018-12-07T15:31:12.293Z,23.74
2018-12-07T15:32:12.339Z,23.74
2018-12-07T15:34:05.234Z,23.73
2018-12-07T15:35:05.432Z,23.67
2018-12-07T15:36:58.395Z,23.70
2018-12-07T15:37:58.248Z,23.73
2018-12-07T15:39:51.218Z,23.66
2018-12-07T15:40:51.221Z,23.66
2018-12-07T15:42:44.389Z,23.74
2018-12-07T15:43:44.216Z,23.69
2018-12-07T15:45:37.311Z,23.66
2018-12-07T15:46:37.355Z,23.74
2018-12-07T15:48:30.088Z,23.74
2018-12-07T15:49:30.283Z,23.73
2018-12-07T15:51:23.086Z,23.73
2018-12-07T15:52:23.294Z,23.67
2018-12-07T15:54:16.035Z,23.70
2018-12-07T15:55:16.121Z,23.76
2018-12-07T15:57:09.055Z,23.76
2018-12-07T15:58:09.094Z,23.77
2018-12-07T16:00:02.280Z,23.79
2018-12-07T16:01:02.173Z,23.77
2018-12-07T16:02:55.161Z,23.82
2018-12-07T16:03:55.005Z,23.91
2018-12-07T16:05:47.985Z,23.85
2018-12-07T16:06:48.021Z,23.73
2018-12-07T16:08:41.220Z,23.67
2018-12-07T16:09:40.986Z,23.70
2018-12-07T16:11:34.131Z,23.55
2018-12-07T16:12:34.153Z,23.62
2018-12-07T16:14:27.149Z,23.62
2018-12-07T16:15:26.939Z,23.69
2018-12-07T16:17:19.973Z,23.69
2018-12-07T16:18:19.895Z,23.73
2018-12-07T16:20:12.822Z,23.73
2018-12-07T16:21:13.089Z,23.73
2018-12-07T16:23:05.827Z,23.86
2018-12-07T16:24:05.843Z,23.89
2018-12-07T16:25:58.835Z,23.86
2018-12-07T16:26:58.797Z,23.81
2018-12-07T16:28:51.807Z,23.84
2018-12-07T16:29:51.905Z,23.84
2018-12-07T16:31:44.798Z,23.94
2018-12-07T16:32:44.983Z,24.00
2018-12-07T16:34:37.730Z,23.96
2018-12-07T16:35:37.760Z,23.96
2018-12-07T16:37:30.775Z,23.96
2018-12-07T16:38:30.755Z,23.81
2018-12-07T16:40:23.794Z,23.88
2018-12-07T16:41:23.795Z,23.89
2018-12-07T16:43:16.722Z,23.85
2018-12-07T16:44:16.688Z,23.86
2018-12-07T16:46:09.631Z,23.84
2018-12-07T16:47:09.719Z,23.84
2018-12-07T16:49:02.606Z,23.89
2018-12-07T16:50:02.892Z,23.89
2018-12-07T16:51:55.594Z,23.86
2018-12-07T16:52:55.668Z,24.00
2018-12-07T16:54:49.086Z,23.88
2018-12-07T16:55:49.281Z,23.91
2018-12-07T16:57:42.004Z,23.92
2018-12-07T16:58:42.265Z,23.82
2018-12-07T17:00:35.533Z,23.95
2018-12-07T17:01:35.715Z,23.94
2018-12-07T17:03:28.680Z,23.89
2018-12-07T17:04:28.474Z,23.88
2018-12-07T17:06:22.203Z,23.95
2018-12-07T17:07:22.015Z,23.92
2018-12-07T17:09:14.919Z,23.92
2018-12-07T17:10:15.887Z,23.92
2018-12-07T17:12:08.389Z,23.85
2018-12-07T17:13:08.632Z,23.82
2018-12-07T17:15:01.842Z,23.88
2018-12-07T17:16:01.945Z,23.88
2018-12-07T17:17:55.547Z,23.82
2018-12-07T17:18:55.447Z,23.95
2018-12-07T17:20:48.302Z,23.91
2018-12-07T17:21:48.552Z,23.76
2018-12-07T17:23:41.902Z,23.88
2018-12-07T17:24:41.902Z,23.99
2018-12-07T17:26:34.907Z,23.95
2018-12-07T17:27:34.772Z,24.10
2018-12-07T17:29:27.903Z,24.03
2018-12-07T17:30:27.769Z,24.07
2018-12-07T17:32:20.877Z,24.10
2018-12-07T17:33:20.867Z,24.09
2018-12-07T17:35:13.900Z,24.07
2018-12-07T17:36:13.985Z,24.11
2018-12-07T17:38:07.245Z,24.13
2018-12-07T17:39:07.435Z,24.11
2018-12-07T17:41:00.137Z,24.21
2018-12-07T17:42:00.152Z,24.22
2018-12-07T17:43:53.314Z,24.04
2018-12-07T17:44:53.188Z,24.07
2018-12-07T17:46:46.152Z,24.07
2018-12-07T17:47:46.118Z,24.07
2018-12-07T17:49:39.078Z,24.09
2018-12-07T17:50:39.319Z,24.01
2018-12-07T17:52:32.135Z,24.04
2018-12-07T17:53:32.089Z,23.92
2018-12-07T17:55:25.324Z,23.92
2018-12-07T17:56:25.176Z,23.96
2018-12-07T17:58:18.202Z,23.85
2018-12-07T17:59:18.171Z,23.94
2018-12-07T18:01:11.011Z,23.91
2018-12-07T18:02:11.034Z,23.82
2018-12-07T18:04:03.979Z,23.95
2018-12-07T18:05:04.012Z,23.91
2018-12-07T18:06:56.993Z,23.84
2018-12-07T18:07:57.208Z,23.88
2018-12-07T18:09:50.056Z,23.88
2018-12-07T18:10:50.136Z,23.92
2018-12-07T18:12:42.988Z,23.82
2018-12-07T18:13:43.005Z,23.79
2018-12-07T18:15:35.917Z,23.86
2018-12-07T18:16:36.139Z,23.85
2018-12-07T18:18:29.074Z,23.86
2018-12-07T18:19:28.912Z,23.84
2018-12-07T18:21:22.402Z,23.85
2018-12-07T18:22:22.394Z,23.81
2018-12-07T18:24:15.527Z,23.86
2018-12-07T18:25:15.437Z,23.88
2018-12-07T18:27:08.394Z,23.91
2018-12-07T18:28:08.346Z,23.86
2018-12-07T18:30:01.259Z,23.81
2018-12-07T18:31:01.327Z,23.94
2018-12-07T18:32:54.295Z,23.86
2018-12-07T18:33:54.260Z,23.92